Time;durP1;ratioP1;P1;durP2;ratioP2;P2;SDS_P1;SDS_P2;PMS_P1;PMS_P2;Temp;Humidity;BMP_temperature;BMP_pressure;BME280_temperature;BME280_humidity;BME280_pressure;Samples;Min_cycle;Max_cycle;Signal;HPM_P1;HPM_P2
2023/09/06 00:00:33;;;;;;;2.42;1.58;;;;;;;23.94;31.43;101501.72;4999912;28;20164;-69
2023/09/06 00:03:03;;;;;;;3.25;1.58;;;;;;;23.93;31.27;101500.00;5005626;28;20356;-69
2023/09/06 00:05:31;;;;;;;2.47;1.63;;;;;;;23.89;31.45;101498.69;5001825;28;20549;-69
2023/09/06 00:07:59;;;;;;;2.90;1.45;;;;;;;23.85;31.29;101500.16;5005689;28;20093;-69
2023/09/06 00:10:27;;;;;;;2.92;1.67;;;;;;;23.84;31.61;101500.34;5002231;28;20092;-69
2023/09/06 00:12:55;;;;;;;2.88;1.60;;;;;;;23.82;31.16;101496.94;4999723;28;20042;-69
2023/09/06 00:15:23;;;;;;;2.30;1.50;;;;;;;23.80;31.55;101505.53;5002333;28;20050;-69
2023/09/06 00:17:51;;;;;;;2.97;1.60;;;;;;;23.77;31.62;101500.31;5000375;28;20065;-70
2023/09/06 00:20:21;;;;;;;3.50;1.50;;;;;;;23.76;31.97;101498.59;5001211;28;20141;-68
2023/09/06 00:22:55;;;;;;;3.42;1.70;;;;;;;23.76;31.78;101505.06;5006129;28;20054;-70
2023/09/06 00:25:25;;;;;;;3.20;1.52;;;;;;;23.71;31.67;101502.00;5003424;28;20050;-69
2023/09/06 00:27:53;;;;;;;3.55;1.80;;;;;;;23.68;31.80;101499.59;5004381;28;20045;-69
2023/09/06 00:30:21;;;;;;;2.85;1.67;;;;;;;23.67;31.70;101502.59;5005604;28;20048;-69
2023/09/06 00:32:52;;;;;;;2.78;1.73;;;;;;;23.65;31.59;101493.56;5005027;28;20044;-69
2023/09/06 00:35:23;;;;;;;3.03;1.58;;;;;;;23.64;31.80;101500.22;5000764;28;20084;-69
2023/09/06 00:37:52;;;;;;;2.90;1.80;;;;;;;23.61;31.82;101504.28;5006480;28;20041;-69
2023/09/06 00:40:21;;;;;;;2.47;1.42;;;;;;;23.60;31.92;101504.47;5006264;28;20144;-69
2023/09/06 00:42:51;;;;;;;4.38;2.00;;;;;;;23.60;31.93;101512.88;4996094;28;20054;-69
2023/09/06 00:45:22;;;;;;;2.72;1.60;;;;;;;23.57;32.20;101510.50;5002242;28;20053;-69
2023/09/06 00:47:51;;;;;;;2.50;1.55;;;;;;;23.56;32.21;101514.38;5007596;28;20107;-69
2023/09/06 00:50:21;;;;;;;2.33;1.52;;;;;;;23.53;32.00;101511.97;4994058;28;20133;-69
2023/09/06 00:52:52;;;;;;;2.92;1.50;;;;;;;23.54;32.13;101516.50;4995965;28;20035;-69
2023/09/06 00:55:21;;;;;;;3.10;1.77;;;;;;;23.50;31.94;101506.78;5001102;28;20045;-69
2023/09/06 00:57:49;;;;;;;3.00;1.67;;;;;;;23.47;32.28;101515.59;5003200;28;20062;-69
2023/09/06 01:00:19;;;;;;;2.25;1.42;;;;;;;23.46;32.08;101523.09;4992153;28;20042;-69
2023/09/06 01:02:48;;;;;;;2.97;1.80;;;;;;;23.43;32.36;101526.28;5001646;28;20073;-69
2023/09/06 01:05:16;;;;;;;3.63;1.70;;;;;;;23.41;32.43;101519.19;5004548;28;20045;-69
2023/09/06 01:07:50;;;;;;;2.75;1.73;;;;;;;23.43;32.48;101520.69;5001151;28;20074;-69
2023/09/06 01:10:20;;;;;;;4.15;1.90;;;;;;;23.39;32.93;101522.19;5018630;28;20111;-69
2023/09/06 01:12:48;;;;;;;2.67;1.60;;;;;;;23.33;32.62;101518.25;5000693;28;20104;-69
2023/09/06 01:15:16;;;;;;;3.00;1.40;;;;;;;23.30;32.45;101521.47;5006896;28;20065;-69
2023/09/06 01:17:46;;;;;;;2.55;1.60;;;;;;;23.29;32.59;101518.88;5005499;28;20056;-69
2023/09/06 01:20:32;;;;;;;2.85;1.60;;;;;;;23.27;32.60;101526.59;4998893;28;20046;-69
2023/09/06 01:23:10;;;;;;;2.42;1.30;;;;;;;23.25;32.80;101528.75;5002863;28;20116;-69
2023/09/06 01:25:40;;;;;;;2.70;1.60;;;;;;;23.21;32.63;101521.81;5005123;28;20056;-70
2023/09/06 01:28:08;;;;;;;3.00;1.75;;;;;;;23.18;32.51;101522.22;5009796;28;20038;-69
2023/09/06 01:30:37;;;;;;;2.63;1.80;;;;;;;23.17;32.57;101526.94;5004989;28;20050;-69
2023/09/06 01:33:05;;;;;;;2.90;1.80;;;;;;;23.12;33.04;101521.06;5007741;28;20042;-70
2023/09/06 01:35:33;;;;;;;2.78;1.80;;;;;;;23.11;32.92;101526.84;5009805;28;20458;-69
2023/09/06 01:38:01;;;;;;;3.20;1.77;;;;;;;23.09;32.87;101526.16;5008916;28;20136;-69
2023/09/06 01:40:29;;;;;;;3.92;2.20;;;;;;;23.04;33.16;101521.19;5008721;28;20148;-68
2023/09/06 01:42:58;;;;;;;3.60;2.13;;;;;;;23.02;33.09;101528.91;5008975;28;20060;-69
2023/09/06 01:45:29;;;;;;;3.03;2.05;;;;;;;22.97;33.20;101529.53;5006712;28;20054;-69
2023/09/06 01:47:57;;;;;;;3.88;2.10;;;;;;;22.94;33.12;101529.03;5008120;28;20517;-69
2023/09/06 01:50:25;;;;;;;3.28;1.80;;;;;;;22.90;33.45;101527.72;5004034;28;20404;-69
2023/09/06 01:52:55;;;;;;;4.22;1.90;;;;;;;22.86;33.19;101529.19;5004752;28;20512;-68
2023/09/06 01:55:21;;;;;;;3.65;2.00;;;;;;;22.82;33.65;101525.94;5012463;28;20482;-69
2023/09/06 01:57:49;;;;;;;2.90;1.80;;;;;;;22.79;33.43;101528.25;5007120;28;20038;-69
2023/09/06 02:00:22;;;;;;;3.35;1.75;;;;;;;22.78;33.69;101529.31;5006007;28;20575;-69
2023/09/06 02:02:50;;;;;;;;;;;;;;;22.44;33.75;101530.84;5007078;28;20560;-69
2023/09/06 02:05:18;;;;;;;2.85;1.83;;;;;;;22.66;33.56;101522.53;5017876;28;20433;-68
2023/09/06 02:07:47;;;;;;;5.22;1.88;;;;;;;22.68;33.70;101529.63;5003846;28;20164;-69
2023/09/06 02:10:15;;;;;;;3.10;1.70;;;;;;;22.66;33.76;101529.00;5004690;28;20475;-69
2023/09/06 02:12:45;;;;;;;3.03;1.67;;;;;;;22.64;33.72;101531.09;5003869;28;20038;-69
2023/09/06 02:15:14;;;;;;;3.50;1.90;;;;;;;22.61;33.61;101523.97;5007432;28;20748;-68
2023/09/06 02:17:45;;;;;;;3.20;1.80;;;;;;;22.62;33.94;101517.34;5003194;28;20050;-68
2023/09/06 02:20:17;;;;;;;3.13;1.70;;;;;;;22.58;33.74;101520.75;5017470;28;20095;-70
2023/09/06 02:22:46;;;;;;;2.90;1.75;;;;;;;22.54;33.71;101523.06;5007842;28;20053;-69
2023/09/06 02:25:16;;;;;;;4.57;2.00;;;;;;;22.55;33.74;101526.72;5006049;28;20107;-69
2023/09/06 02:27:44;;;;;;;3.03;1.80;;;;;;;22.53;34.03;101524.09;5004132;28;20045;-69
2023/09/06 02:30:12;;;;;;;3.42;2.00;;;;;;;22.50;33.88;101529.19;5001644;28;20172;-69
2023/09/06 02:32:41;;;;;;;3.08;1.85;;;;;;;22.49;34.02;101527.47;5007091;28;20037;-69
2023/09/06 02:35:11;;;;;;;3.13;1.77;;;;;;;22.48;33.76;101526.59;5002112;28;20092;-68
2023/09/06 02:37:38;;;;;;;2.40;1.50;;;;;;;22.45;33.83;101526.97;5007329;28;20054;-69
2023/09/06 02:40:11;;;;;;;3.47;1.98;;;;;;;22.46;33.80;101522.28;5007184;28;20708;-69
2023/09/06 02:42:40;;;;;;;4.03;1.63;;;;;;;22.44;33.85;101530.84;5019174;28;20069;-69
2023/09/06 02:45:10;;;;;;;2.92;1.90;;;;;;;22.44;33.99;101529.97;5005170;28;20116;-69
2023/09/06 02:47:39;;;;;;;3.53;1.60;;;;;;;22.42;34.21;101530.19;5005774;28;20100;-69
2023/09/06 02:50:11;;;;;;;3.47;1.90;;;;;;;22.41;34.17;101531.25;5002602;28;20062;-69
2023/09/06 02:52:44;;;;;;;2.70;1.70;;;;;;;22.39;34.06;101526.91;5004271;28;20120;-69
2023/09/06 02:55:14;;;;;;;3.45;2.08;;;;;;;22.37;34.01;101527.09;5006065;28;20054;-69
2023/09/06 02:57:42;;;;;;;3.35;1.70;;;;;;;22.37;34.17;101531.81;5007348;28;20042;-70
2023/09/06 03:00:24;;;;;;;2.83;1.70;;;;;;;22.37;34.30;101527.09;5003987;28;20816;-69
2023/09/06 03:02:54;;;;;;;4.13;1.65;;;;;;;22.33;34.40;101531.38;5005161;28;20042;-70
2023/09/06 03:05:23;;;;;;;2.60;1.70;;;;;;;22.32;34.37;101534.34;5007729;28;20441;-69
2023/09/06 03:07:53;;;;;;;3.38;2.05;;;;;;;22.33;34.21;101527.72;5005401;28;20124;-69
2023/09/06 03:10:24;;;;;;;3.72;2.10;;;;;;;22.29;34.21;101524.44;4998027;28;20046;-69
2023/09/06 03:12:56;;;;;;;3.28;1.90;;;;;;;22.31;34.55;101533.47;5019344;28;20073;-69
2023/09/06 03:15:28;;;;;;;2.75;1.88;;;;;;;22.26;34.57;101530.41;5001020;28;20046;-70
2023/09/06 03:18:03;;;;;;;3.47;1.90;;;;;;;22.21;34.69;101533.78;5004775;28;20042;-69
2023/09/06 03:20:42;;;;;;;2.80;1.90;;;;;;;22.20;34.71;101525.59;5001920;28;20417;-69
2023/09/06 03:23:21;;;;;;;4.38;1.73;;;;;;;22.20;34.71;101531.19;5003457;28;20103;-69
2023/09/06 03:25:54;;;;;;;4.57;2.03;;;;;;;22.16;34.78;101533.50;5014005;28;20061;-69
2023/09/06 03:28:26;;;;;;;4.65;1.80;;;;;;;22.14;34.89;101527.25;5001647;28;20046;-69
2023/09/06 03:30:58;;;;;;;4.13;1.70;;;;;;;22.14;34.78;101538.41;5000935;28;20121;-69
2023/09/06 03:33:26;;;;;;;3.03;1.95;;;;;;;22.11;34.95;101527.63;5009996;28;20062;-68
2023/09/06 03:35:55;;;;;;;2.80;1.75;;;;;;;22.11;34.60;101540.69;5006047;28;20100;-69
2023/09/06 03:38:26;;;;;;;3.55;2.03;;;;;;;22.12;34.78;101539.66;5007998;28;20049;-68
2023/09/06 03:41:01;;;;;;;2.92;1.70;;;;;;;22.08;34.84;101552.25;5001994;28;20053;-68
2023/09/06 03:43:32;;;;;;;2.90;1.75;;;;;;;22.08;34.96;101543.91;5004950;28;20058;-69
2023/09/06 03:46:04;;;;;;;3.78;1.92;;;;;;;22.07;35.04;101539.38;5006695;28;20045;-69
2023/09/06 03:48:35;;;;;;;3.15;1.70;;;;;;;22.04;34.81;101543.41;5008680;28;20065;-69
2023/09/06 03:51:04;;;;;;;3.50;1.90;;;;;;;22.03;34.74;101538.03;5017228;28;20124;-69
2023/09/06 03:53:37;;;;;;;3.08;1.75;;;;;;;22.04;34.89;101539.75;5003251;28;20576;-69
2023/09/06 03:56:06;;;;;;;2.70;1.75;;;;;;;21.99;34.73;101543.13;5002815;28;20130;-69
2023/09/06 03:58:40;;;;;;;3.50;2.00;;;;;;;21.98;35.23;101551.69;5004125;28;20038;-69
2023/09/06 04:01:10;;;;;;;3.20;2.08;;;;;;;21.95;34.95;101543.69;5001069;28;20048;-69
2023/09/06 04:03:40;;;;;;;3.30;1.88;;;;;;;21.92;35.11;101539.41;5003346;28;20046;-70
2023/09/06 04:06:10;;;;;;;3.08;1.80;;;;;;;21.90;35.09;101541.47;5008739;28;20050;-69
2023/09/06 04:08:41;;;;;;;2.80;1.95;;;;;;;21.89;34.99;101551.75;5000557;28;20064;-69
2023/09/06 04:11:10;;;;;;;3.22;1.90;;;;;;;21.86;35.35;101548.47;5004065;28;20064;-69
2023/09/06 04:13:42;;;;;;;3.47;1.95;;;;;;;21.82;34.96;101549.94;5002100;28;20049;-69
2023/09/06 04:16:10;;;;;;;3.08;1.85;;;;;;;21.82;34.93;101548.00;4994280;28;20510;-69
2023/09/06 04:18:41;;;;;;;2.92;1.83;;;;;;;21.80;35.36;101552.91;4998845;28;20056;-69
2023/09/06 04:21:10;;;;;;;4.13;1.73;;;;;;;21.80;35.47;101549.25;5005392;28;20408;-70
2023/09/06 04:23:44;;;;;;;3.45;1.80;;;;;;;21.78;35.06;101546.63;5034060;28;20044;-69
2023/09/06 04:26:16;;;;;;;3.35;1.98;;;;;;;21.77;35.28;101560.75;5013362;28;20037;-69
2023/09/06 04:28:46;;;;;;;2.92;1.80;;;;;;;21.76;35.33;101561.84;5040847;23;20044;-85
2023/09/06 05:03:51;;;;;;;3.83;1.98;;;;;;;21.26;36.16;101582.88;5022792;28;20142;-86
2023/09/06 05:06:22;;;;;;;4.35;2.13;;;;;;;21.27;35.53;101583.75;5011944;28;20514;-82
2023/09/06 05:08:50;;;;;;;3.40;2.03;;;;;;;21.29;35.80;101585.25;5008250;28;20075;-82
2023/09/06 05:11:21;;;;;;;3.20;2.10;;;;;;;21.27;35.75;101580.97;5009771;28;20795;-83
2023/09/06 05:13:52;;;;;;;3.17;2.00;;;;;;;21.30;35.84;101580.56;5009123;28;20046;-82
2023/09/06 05:16:22;;;;;;;3.65;2.05;;;;;;;21.30;35.89;101581.44;5007213;28;20052;-84
2023/09/06 05:18:50;;;;;;;4.95;2.10;;;;;;;21.31;35.93;101582.28;5012543;28;20055;-82
2023/09/06 05:21:24;;;;;;;3.58;2.03;;;;;;;21.33;36.24;101586.63;5015259;28;20424;-81
2023/09/06 05:23:52;;;;;;;3.88;2.00;;;;;;;21.31;35.88;101597.09;5007533;28;20115;-82
2023/09/06 05:26:20;;;;;;;3.13;2.00;;;;;;;21.31;35.97;101597.09;5013479;28;20059;-82
2023/09/06 05:28:49;;;;;;;4.32;2.10;;;;;;;21.32;36.07;101598.81;5026642;28;20107;-83
2023/09/06 05:31:20;;;;;;;3.28;1.90;;;;;;;21.33;36.01;101594.13;5011243;28;20401;-83
2023/09/06 05:33:49;;;;;;;;;;;;;;;21.04;36.44;101590.13;5019919;28;20045;-82
2023/09/06 05:36:21;;;;;;;3.83;2.00;;;;;;;21.29;36.14;101592.75;5012812;28;19980;-81
2023/09/06 05:38:50;;;;;;;3.60;2.10;;;;;;;21.35;36.01;101594.81;5026404;28;20520;-82
2023/09/06 05:41:20;;;;;;;3.05;1.80;;;;;;;21.35;36.20;101594.81;5010142;28;20119;-82
2023/09/06 05:43:48;;;;;;;3.28;2.00;;;;;;;21.36;35.99;101599.28;5023883;28;20584;-84
2023/09/06 05:46:17;;;;;;;4.30;2.25;;;;;;;21.37;36.07;101598.25;5013318;28;20044;-84
2023/09/06 05:49:04;;;;;;;4.35;2.20;;;;;;;21.37;36.08;101598.25;5023433;28;20073;-81
2023/09/06 05:51:36;;;;;;;3.45;2.08;;;;;;;21.36;36.31;101602.09;5013963;28;20045;-84
2023/09/06 05:54:06;;;;;;;4.43;2.38;;;;;;;21.41;36.04;101596.84;5016430;28;20049;-82
2023/09/06 05:56:36;;;;;;;4.32;2.58;;;;;;;21.38;36.12;101592.50;5010320;28;20042;-85
2023/09/06 05:59:05;;;;;;;4.07;2.20;;;;;;;21.40;36.27;101598.75;5010909;28;20756;-83
2023/09/06 06:01:33;;;;;;;3.60;2.00;;;;;;;21.41;36.21;101602.41;5013479;28;20064;-84
2023/09/06 06:04:01;;;;;;;4.68;2.20;;;;;;;21.42;35.89;101601.34;5020520;28;20175;-82
2023/09/06 06:06:31;;;;;;;3.88;2.25;;;;;;;21.43;36.27;101591.94;5010900;28;20327;-84
2023/09/06 06:08:59;;;;;;;3.70;2.20;;;;;;;21.44;36.11;101599.22;5015387;28;20200;-83
2023/09/06 06:11:28;;;;;;;4.32;2.40;;;;;;;21.48;36.23;101598.66;5027578;28;20131;-84
2023/09/06 06:13:56;;;;;;;4.07;2.20;;;;;;;21.47;36.18;101601.63;5008706;28;20127;-82
2023/09/06 06:16:38;;;;;;;2.88;2.00;;;;;;;21.50;35.91;101606.84;5021036;28;20029;-82
2023/09/06 06:19:07;;;;;;;3.58;2.20;;;;;;;21.51;36.09;101594.66;5013827;28;20050;-83
2023/09/06 06:21:35;;;;;;;5.70;2.40;;;;;;;21.52;36.26;101608.38;5008998;28;20041;-83
2023/09/06 06:24:03;;;;;;;3.60;2.35;;;;;;;21.53;36.05;101610.09;5025668;28;20057;-83
2023/09/06 06:26:32;;;;;;;3.22;2.00;;;;;;;21.56;36.06;101606.09;5025506;28;20042;-82
2023/09/06 06:29:01;;;;;;;3.33;2.10;;;;;;;21.55;35.99;101606.28;5004096;28;20046;-81
2023/09/06 06:31:30;;;;;;;5.47;2.50;;;;;;;21.58;36.13;101605.91;5028286;28;20592;-81
2023/09/06 06:33:59;;;;;;;3.80;1.98;;;;;;;21.58;36.13;101606.78;5004552;28;20066;-82
2023/09/06 06:36:27;;;;;;;4.90;1.90;;;;;;;21.61;36.02;101599.94;5012217;28;20057;-81
2023/09/06 06:38:56;;;;;;;3.78;2.22;;;;;;;21.62;36.20;101608.09;5007558;28;20075;-82
2023/09/06 06:41:25;;;;;;;4.03;2.47;;;;;;;21.63;35.90;101612.63;5014452;28;20052;-80
2023/09/06 06:43:55;;;;;;;4.15;2.28;;;;;;;21.66;35.79;101614.19;5010134;28;20052;-78
2023/09/06 06:46:25;;;;;;;3.95;2.50;;;;;;;21.67;35.83;101618.69;5031430;28;20076;-80
2023/09/06 06:48:53;;;;;;;3.83;1.95;;;;;;;21.67;35.94;101615.91;5002790;28;20060;-78
2023/09/06 06:51:22;;;;;;;3.33;2.03;;;;;;;21.71;36.27;101620.91;5005151;28;20061;-81
2023/09/06 06:53:50;;;;;;;4.43;2.50;;;;;;;21.72;35.98;101617.06;5002229;28;20046;-82
2023/09/06 06:56:21;;;;;;;3.75;2.10;;;;;;;21.75;36.01;101626.97;5007592;28;20130;-80
2023/09/06 06:58:50;;;;;;;3.25;2.17;;;;;;;21.78;36.19;101630.22;5010490;28;20048;-81
2023/09/06 07:01:20;;;;;;;3.60;2.22;;;;;;;21.85;36.06;101635.91;5014762;28;20049;-84
2023/09/06 07:03:48;;;;;;;3.60;2.10;;;;;;;21.86;35.96;101632.94;5031688;28;20131;-82
2023/09/06 07:06:17;;;;;;;3.42;2.13;;;;;;;21.92;36.15;101627.72;5010664;28;20123;-80
2023/09/06 07:08:45;;;;;;;4.00;2.08;;;;;;;21.98;36.19;101633.38;5016018;28;20131;-82
2023/09/06 07:11:14;;;;;;;3.42;2.00;;;;;;;22.05;36.09;101636.25;5010623;28;20618;-80
2023/09/06 07:13:42;;;;;;;3.13;2.03;;;;;;;22.11;35.89;101625.19;5012133;28;20041;-82
2023/09/06 07:16:10;;;;;;;3.53;2.20;;;;;;;22.19;35.84;101624.25;5008749;28;20047;-80
2023/09/06 07:18:40;;;;;;;4.10;2.30;;;;;;;22.30;35.87;101625.69;5026276;28;20120;-81
2023/09/06 07:21:09;;;;;;;3.13;2.08;;;;;;;22.38;36.30;101622.78;5010163;28;20053;-81
2023/09/06 07:23:37;;;;;;;3.17;1.90;;;;;;;22.46;36.09;101629.13;5024277;28;20052;-82
2023/09/06 07:26:05;;;;;;;3.67;2.20;;;;;;;22.54;35.85;101629.06;5025342;28;20547;-79
2023/09/06 07:28:40;;;;;;;3.92;2.13;;;;;;;22.66;35.21;101632.22;5024030;28;20532;-82
2023/09/06 07:31:09;;;;;;;3.72;2.20;;;;;;;22.72;35.44;101631.44;5008297;28;20045;-81
2023/09/06 07:33:38;;;;;;;4.35;2.20;;;;;;;22.80;35.32;101631.31;5006093;28;20056;-81
2023/09/06 07:36:08;;;;;;;3.88;2.20;;;;;;;22.89;35.04;101635.72;5011003;28;20041;-81
2023/09/06 07:38:37;;;;;;;5.25;2.55;;;;;;;22.95;35.05;101631.28;5001528;28;20042;-80
2023/09/06 07:41:07;;;;;;;4.00;2.13;;;;;;;23.07;35.22;101640.88;5006072;28;20312;-79
2023/09/06 07:43:37;;;;;;;3.22;1.75;;;;;;;23.14;35.08;101641.81;5003551;28;20099;-79
2023/09/06 07:46:08;;;;;;;4.00;2.25;;;;;;;23.23;34.55;101646.22;5004612;28;20121;-79
2023/09/06 07:48:38;;;;;;;4.17;2.40;;;;;;;23.26;34.56;101643.03;5022990;28;20060;-80
2023/09/06 07:51:09;;;;;;;3.40;2.00;;;;;;;23.40;34.60;101632.88;5018589;28;20033;-79
2023/09/06 07:53:37;;;;;;;3.25;2.00;;;;;;;23.44;34.43;101639.75;5019527;28;20070;-78
2023/09/06 07:56:07;;;;;;;3.30;2.05;;;;;;;23.53;34.91;101643.28;5017236;28;20037;-78
2023/09/06 07:58:35;;;;;;;3.53;2.25;;;;;;;23.60;33.96;101647.00;5023135;28;20677;-77
2023/09/06 08:01:05;;;;;;;3.47;2.10;;;;;;;23.69;33.91;101649.44;5023547;28;20045;-80
2023/09/06 08:03:45;;;;;;;3.60;2.50;;;;;;;23.76;34.13;101653.19;5027311;28;20060;-80
2023/09/06 08:06:15;;;;;;;3.90;2.50;;;;;;;23.86;33.52;101638.00;5006268;28;20046;-81
2023/09/06 08:08:44;;;;;;;3.60;2.30;;;;;;;23.91;33.75;101644.69;5020360;28;20749;-80
2023/09/06 08:11:12;;;;;;;4.63;2.60;;;;;;;23.98;33.68;101650.38;5019712;28;20128;-81
2023/09/06 08:13:41;;;;;;;3.38;2.20;;;;;;;24.04;33.35;101642.03;5024589;28;20052;-80
2023/09/06 08:16:10;;;;;;;3.90;2.20;;;;;;;24.10;33.18;101646.78;5022636;28;20413;-80
2023/09/06 08:18:40;;;;;;;3.55;2.20;;;;;;;24.17;33.08;101649.63;5027941;28;20057;-80
2023/09/06 08:21:09;;;;;;;4.03;2.45;;;;;;;24.23;32.92;101636.75;5013882;28;20041;-80
2023/09/06 08:23:38;;;;;;;3.88;2.58;;;;;;;24.33;33.08;101637.22;5005543;28;20132;-81
2023/09/06 08:29:11;;;;;;;3.30;2.13;;;;;;;24.38;33.25;101641.19;4980973;28;20133;-86
2023/09/06 08:31:41;;;;;;;3.15;2.20;;;;;;;24.48;33.10;101641.66;4997045;28;20495;-86
2023/09/06 08:34:11;;;;;;;4.43;2.38;;;;;;;24.59;32.82;101637.41;5009101;28;20046;-89
2023/09/06 08:36:39;;;;;;;3.15;2.17;;;;;;;24.66;32.88;101640.22;5013958;28;20056;-87
2023/09/06 08:39:08;;;;;;;3.25;2.13;;;;;;;24.76;32.77;101638.78;5025077;28;20132;-88
2023/09/06 08:41:37;;;;;;;3.40;2.22;;;;;;;24.83;32.61;101630.41;5012545;28;20052;-88
2023/09/06 08:44:11;;;;;;;4.07;2.35;;;;;;;24.96;31.91;101641.69;5013984;28;20030;-87
2023/09/06 08:46:41;;;;;;;4.43;2.42;;;;;;;25.02;32.12;101642.78;5016291;28;20132;-87
2023/09/06 08:49:10;;;;;;;4.40;2.42;;;;;;;25.08;31.89;101642.78;5008428;28;20543;-86
2023/09/06 08:51:40;;;;;;;4.57;2.40;;;;;;;25.18;32.00;101645.19;5011664;28;20045;-87
2023/09/06 08:54:12;;;;;;;4.25;2.55;;;;;;;25.25;31.94;101644.13;5015691;28;20041;-86
2023/09/06 08:56:40;;;;;;;4.07;2.55;;;;;;;25.31;31.89;101642.38;5021509;28;20044;-84
2023/09/06 08:59:09;;;;;;;4.63;2.65;;;;;;;25.40;31.73;101640.25;5008978;28;20037;-87
2023/09/06 09:01:37;;;;;;;2.88;2.25;;;;;;;25.47;31.37;101641.16;5014679;28;20069;-86
2023/09/06 09:04:06;;;;;;;4.03;2.58;;;;;;;25.55;31.46;101638.16;5024195;28;20042;-86
2023/09/06 09:06:46;;;;;;;3.88;2.25;;;;;;;25.66;31.00;101648.72;4996071;28;20042;-85
2023/09/06 09:09:17;;;;;;;3.95;2.40;;;;;;;25.72;30.60;101642.25;5009977;28;20065;-85
2023/09/06 09:11:46;;;;;;;3.60;2.30;;;;;;;25.76;31.08;101645.50;5009627;28;20065;-85
2023/09/06 09:14:22;;;;;;;3.22;2.28;;;;;;;25.88;29.95;101652.19;4987751;28;20500;-84
2023/09/06 09:16:56;;;;;;;4.10;2.65;;;;;;;25.94;29.36;101651.31;4997195;28;20121;-84
2023/09/06 09:19:25;;;;;;;3.67;2.53;;;;;;;25.96;29.96;101657.56;5010564;28;20060;-80
2023/09/06 09:21:55;;;;;;;5.32;2.70;;;;;;;26.00;29.74;101647.63;5017262;28;20488;-81
2023/09/06 09:24:29;;;;;;;3.88;2.55;;;;;;;26.06;28.79;101652.34;5034146;28;20597;-80
2023/09/06 09:26:58;;;;;;;4.68;2.75;;;;;;;26.09;29.56;101651.09;5026866;28;20056;-80
2023/09/06 09:29:26;;;;;;;3.55;2.53;;;;;;;26.12;29.92;101648.72;5005447;28;20042;-81
2023/09/06 09:31:54;;;;;;;3.67;2.50;;;;;;;26.18;29.68;101650.66;5009334;28;20125;-80
2023/09/06 09:34:22;;;;;;;3.97;2.70;;;;;;;26.24;29.53;101657.31;4990899;28;20529;-79
2023/09/06 09:36:51;;;;;;;3.88;2.70;;;;;;;26.29;29.43;101651.94;5011189;28;20041;-78
2023/09/06 10:05:00;;;;;;;3.20;2.38;;;;;;;26.92;27.13;101635.31;5037652;28;20084;-83
2023/09/06 10:07:31;;;;;;;3.75;2.58;;;;;;;27.01;27.28;101637.63;5035026;28;20053;-83
2023/09/06 10:10:18;;;;;;;3.65;2.50;;;;;;;27.13;27.16;101632.13;5034521;28;20053;-82
2023/09/06 10:12:49;;;;;;;3.97;2.50;;;;;;;27.26;27.25;101639.66;5015628;28;20048;-83
2023/09/06 10:15:19;;;;;;;4.50;2.90;;;;;;;27.33;27.37;101627.28;5015838;28;20046;-83
2023/09/06 10:17:48;;;;;;;3.95;2.67;;;;;;;27.41;27.10;101626.16;5013591;28;20520;-84
2023/09/06 10:20:23;;;;;;;3.85;2.58;;;;;;;27.53;27.00;101632.78;5024727;28;20471;-83
2023/09/06 10:22:53;;;;;;;3.70;2.50;;;;;;;27.61;27.03;101624.06;5036695;28;20080;-83
2023/09/06 10:25:21;;;;;;;3.72;2.30;;;;;;;27.70;26.71;101621.81;5016297;28;20389;-82
2023/09/06 10:27:50;;;;;;;4.15;2.65;;;;;;;27.80;26.44;101617.41;5015609;28;20114;-83
2023/09/06 10:30:28;;;;;;;5.18;2.75;;;;;;;27.92;25.73;101625.97;5013065;28;20084;-83
2023/09/06 10:32:56;;;;;;;3.53;2.40;;;;;;;27.98;26.01;101621.34;5036476;28;20068;-84
2023/09/06 10:35:29;;;;;;;3.53;2.45;;;;;;;28.10;25.22;101617.56;5038294;28;20045;-84
2023/09/06 10:38:10;;;;;;;3.75;2.40;;;;;;;28.21;24.67;101621.56;5016370;28;20030;-84
2023/09/06 10:41:10;;;;;;;3.75;2.47;;;;;;;28.24;23.63;101624.78;5007848;28;20042;-83
2023/09/06 10:44:02;;;;;;;4.05;2.50;;;;;;;28.33;23.83;101616.91;4985806;28;20053;-84
2023/09/06 10:46:31;;;;;;;3.53;2.60;;;;;;;28.39;24.59;101615.09;4977404;28;20127;-83
2023/09/06 10:49:19;;;;;;;4.13;2.60;;;;;;;28.48;23.90;101625.81;4981976;28;20042;-83
2023/09/06 10:52:01;;;;;;;3.70;2.60;;;;;;;28.54;23.20;101633.31;5017926;28;20079;-84
2023/09/06 10:54:34;;;;;;;3.80;2.53;;;;;;;28.58;23.74;101616.81;5013931;28;20095;-84
2023/09/06 10:57:05;;;;;;;4.07;2.70;;;;;;;28.63;24.08;101619.75;5014385;28;20417;-84
2023/09/06 10:59:38;;;;;;;3.53;2.63;;;;;;;28.68;23.72;101619.06;5021555;28;20045;-82
2023/09/06 11:02:08;;;;;;;4.65;2.97;;;;;;;28.71;24.09;101619.44;5016801;28;20041;-82
2023/09/06 11:04:37;;;;;;;3.95;2.33;;;;;;;28.76;23.83;101613.16;5030451;28;20041;-81
2023/09/06 11:07:10;;;;;;;5.18;2.47;;;;;;;28.83;23.34;101609.16;5016361;28;20060;-81
2023/09/06 11:09:43;;;;;;;3.83;2.50;;;;;;;28.86;23.57;101616.22;5016231;28;20128;-81
2023/09/06 11:12:12;;;;;;;4.85;3.13;;;;;;;28.89;23.73;101615.78;4986374;28;20046;-82
2023/09/06 11:14:42;;;;;;;3.85;2.40;;;;;;;28.91;23.58;101606.00;4996301;28;20441;-82
2023/09/06 11:17:20;;;;;;;3.70;2.50;;;;;;;28.97;23.16;101604.16;4994628;28;20085;-82
2023/09/06 11:19:48;;;;;;;3.75;2.60;;;;;;;28.98;23.70;101600.25;5009690;28;20073;-82
2023/09/06 11:22:17;;;;;;;4.53;2.60;;;;;;;29.04;23.14;101596.47;4991915;28;20042;-82
2023/09/06 11:24:46;;;;;;;3.30;2.53;;;;;;;29.07;23.08;101597.97;5007750;28;20431;-82
2023/09/06 11:27:18;;;;;;;4.28;2.50;;;;;;;29.12;22.61;101598.94;5007621;28;20037;-82
2023/09/06 11:29:46;;;;;;;3.85;2.40;;;;;;;29.11;22.70;101591.59;4996650;28;20048;-82
2023/09/06 11:32:15;;;;;;;3.60;2.40;;;;;;;29.14;22.88;101588.31;5007694;28;20092;-82
2023/09/06 11:34:44;;;;;;;4.10;2.90;;;;;;;29.17;22.75;101595.44;4997388;28;20052;-82
2023/09/06 11:37:15;;;;;;;3.70;2.40;;;;;;;29.20;22.40;101586.47;4988246;28;20053;-83
2023/09/06 11:39:46;;;;;;;4.10;2.58;;;;;;;29.22;22.14;101585.13;5007990;28;20037;-83
2023/09/06 11:42:16;;;;;;;4.28;2.58;;;;;;;29.23;22.53;101586.91;4985672;28;20276;-82
2023/09/06 11:44:49;;;;;;;3.45;2.53;;;;;;;29.28;22.42;101594.59;4997579;28;20069;-82
2023/09/06 11:47:20;;;;;;;4.80;2.40;;;;;;;29.33;22.02;101583.50;5005839;28;20050;-83
2023/09/06 11:49:49;;;;;;;3.50;2.30;;;;;;;29.34;22.17;101583.22;4988104;28;20150;-82
2023/09/06 11:52:19;;;;;;;3.95;2.70;;;;;;;29.39;22.38;101588.16;4986505;28;20477;-81
2023/09/06 11:54:51;;;;;;;3.70;2.28;;;;;;;29.44;22.31;101574.16;5005106;28;20057;-82
2023/09/06 11:57:23;;;;;;;3.20;2.42;;;;;;;29.44;22.47;101578.94;4982543;28;20030;-82
2023/09/06 11:59:57;;;;;;;3.60;2.50;;;;;;;29.52;22.42;101570.13;5001350;28;20084;-81
2023/09/06 12:02:27;;;;;;;3.92;2.50;;;;;;;29.56;22.34;101574.19;4982182;28;20042;-83
2023/09/06 12:05:00;;;;;;;3.60;2.53;;;;;;;29.62;22.50;101581.69;4987094;28;20065;-82
2023/09/06 12:07:30;;;;;;;3.17;2.38;;;;;;;29.62;22.22;101574.06;4992178;28;20042;-82
2023/09/06 12:10:03;;;;;;;3.42;2.42;;;;;;;29.69;22.26;101566.34;4992420;28;20484;-83
2023/09/06 12:12:41;;;;;;;3.58;2.28;;;;;;;29.76;21.50;101568.25;4994961;28;20053;-83
2023/09/06 12:15:14;;;;;;;4.57;2.42;;;;;;;29.80;21.61;101567.50;5011648;28;20515;-83
2023/09/06 12:17:43;;;;;;;3.97;2.75;;;;;;;29.83;21.71;101569.84;5013259;28;20046;-86
2023/09/06 12:20:18;;;;;;;3.65;2.45;;;;;;;29.91;21.65;101561.00;5017774;28;20040;-85
2023/09/06 12:22:47;;;;;;;3.53;2.50;;;;;;;29.91;21.57;101563.81;4992853;28;20060;-83
2023/09/06 12:25:18;;;;;;;4.35;2.78;;;;;;;29.95;21.57;101556.56;4991552;28;20529;-83
2023/09/06 12:27:47;;;;;;;3.45;2.40;;;;;;;29.95;21.38;101556.56;5005210;28;20047;-86
2023/09/06 12:30:18;;;;;;;3.38;2.40;;;;;;;29.99;21.10;101551.28;5001464;28;20041;-87
2023/09/06 12:32:46;;;;;;;4.80;2.70;;;;;;;29.99;21.10;101549.34;5041183;28;20051;-83
2023/09/06 12:35:14;;;;;;;3.80;2.70;;;;;;;30.02;21.28;101554.47;5018227;28;20046;-83
2023/09/06 12:37:43;;;;;;;3.53;2.42;;;;;;;30.03;21.72;101539.25;4992423;28;20042;-84
2023/09/06 12:40:13;;;;;;;3.85;2.60;;;;;;;30.06;21.51;101549.19;5020300;28;20089;-84
2023/09/06 12:42:44;;;;;;;3.58;2.30;;;;;;;30.09;21.45;101545.84;5017424;28;20492;-85